Time;durP1;ratioP1;P1;durP2;ratioP2;P2;SDS_P1;SDS_P2;PMS_P1;PMS_P2;Temp;Humidity;BMP_temperature;BMP_pressure;BME280_temperature;BME280_humidity;BME280_pressure;Samples;Min_cycle;Max_cycle;Signal;HPM_P1;HPM_P2
2024/01/22 00:02:15;;;;;;;2.55;1.80;;;6.30;99.90;;;;;;4981365;28;20033;-80
2024/01/22 00:04:41;;;;;;;1.98;1.80;;;6.40;99.90;;;;;;4996409;28;20099;-79
2024/01/22 00:07:06;;;;;;;3.38;1.98;;;6.30;99.90;;;;;;4979296;28;20049;-80
2024/01/22 00:09:32;;;;;;;2.45;2.22;;;6.40;99.90;;;;;;4987018;28;20489;-80
2024/01/22 00:11:57;;;;;;;3.88;2.70;;;6.40;99.90;;;;;;4983483;28;20073;-80
2024/01/22 00:14:23;;;;;;;2.83;2.53;;;6.40;99.90;;;;;;4982881;28;20049;-80
2024/01/22 00:16:49;;;;;;;3.78;2.35;;;6.40;99.90;;;;;;4990546;28;20343;-81
2024/01/22 00:19:14;;;;;;;2.47;2.22;;;6.40;99.90;;;;;;5000796;28;20080;-80
2024/01/22 00:21:42;;;;;;;2.70;1.83;;;6.50;99.90;;;;;;4990038;28;20130;-80
2024/01/22 00:24:08;;;;;;;7.82;1.88;;;6.50;99.90;;;;;;4981388;28;20046;-80
2024/01/22 00:26:34;;;;;;;2.20;1.58;;;6.50;99.90;;;;;;4979936;28;20097;-80
2024/01/22 00:28:59;;;;;;;3.38;2.13;;;6.50;99.90;;;;;;4980335;28;20442;-80
2024/01/22 00:31:25;;;;;;;1.80;1.40;;;6.50;99.90;;;;;;4982968;28;20046;-80
2024/01/22 00:33:50;;;;;;;3.40;1.90;;;6.60;99.90;;;;;;4982002;28;20042;-80
2024/01/22 00:36:16;;;;;;;4.55;2.17;;;6.60;99.90;;;;;;4980195;28;20050;-80
2024/01/22 00:38:42;;;;;;;2.10;1.77;;;6.60;99.90;;;;;;4964446;28;20141;-79
2024/01/22 00:41:07;;;;;;;1.98;1.33;;;6.60;99.90;;;;;;4988518;28;20042;-80
2024/01/22 00:43:34;;;;;;;7.78;3.03;;;6.70;99.90;;;;;;4987664;28;20060;-80
2024/01/22 00:46:01;;;;;;;2.42;2.13;;;6.70;99.90;;;;;;4986179;28;20046;-80
2024/01/22 00:48:26;;;;;;;2.83;1.80;;;6.70;99.90;;;;;;4992979;28;20046;-80
2024/01/22 00:50:52;;;;;;;2.60;2.20;;;6.70;99.90;;;;;;4980381;28;20047;-80
2024/01/22 00:53:17;;;;;;;3.33;1.83;;;6.70;99.90;;;;;;4981848;28;20042;-80
2024/01/22 00:55:43;;;;;;;2.50;1.92;;;6.70;99.90;;;;;;4993401;28;20388;-80
2024/01/22 00:58:08;;;;;;;2.70;2.25;;;6.70;99.90;;;;;;4963616;28;20120;-79
2024/01/22 01:00:34;;;;;;;4.55;2.00;;;6.80;99.90;;;;;;4975477;28;20255;-80
2024/01/22 01:03:00;;;;;;;3.05;1.55;;;6.80;99.90;;;;;;4994302;28;20638;-79
2024/01/22 01:05:25;;;;;;;3.33;1.83;;;6.70;99.90;;;;;;4981556;28;20054;-79
2024/01/22 01:07:51;;;;;;;4.68;2.53;;;6.80;99.90;;;;;;4983327;28;20099;-80
2024/01/22 01:10:16;;;;;;;3.50;2.05;;;6.80;99.90;;;;;;5000917;28;20046;-80
2024/01/22 01:12:42;;;;;;;5.07;2.10;;;6.80;99.90;;;;;;4966618;28;20140;-81
2024/01/22 01:15:09;;;;;;;6.78;2.17;;;6.80;99.90;;;;;;4982426;28;20092;-80
2024/01/22 01:17:36;;;;;;;2.55;1.58;;;6.80;99.90;;;;;;4983413;28;20049;-80
2024/01/22 01:20:03;;;;;;;2.42;1.63;;;6.70;99.90;;;;;;5003720;28;20433;-80
2024/01/22 01:22:29;;;;;;;4.72;1.40;;;6.80;99.90;;;;;;5004383;28;20037;-80
2024/01/22 01:24:55;;;;;;;7.03;2.50;;;6.80;99.90;;;;;;5004041;28;20046;-80
2024/01/22 01:27:21;;;;;;;1.48;1.23;;;6.80;99.90;;;;;;4987295;28;20045;-80
2024/01/22 01:29:46;;;;;;;3.25;1.92;;;6.90;99.90;;;;;;5004657;28;20664;-80
2024/01/22 01:32:12;;;;;;;5.22;1.90;;;6.90;99.90;;;;;;5004190;28;20057;-80
2024/01/22 01:34:38;;;;;;;3.55;1.70;;;6.90;99.90;;;;;;4990637;28;20302;-80
2024/01/22 01:37:04;;;;;;;2.00;1.80;;;6.90;99.90;;;;;;4967293;28;20054;-80
2024/01/22 01:39:30;;;;;;;4.40;1.83;;;6.90;99.90;;;;;;4991587;28;20477;-81
2024/01/22 01:41:55;;;;;;;6.75;2.28;;;7.00;99.90;;;;;;4985814;28;20047;-81
2024/01/22 01:44:36;;;;;;;3.10;2.85;;;7.00;99.90;;;;;;4982304;28;20046;-81
2024/01/22 01:47:02;;;;;;;2.45;1.83;;;7.00;99.90;;;;;;4998503;28;20124;-80
2024/01/22 01:49:28;;;;;;;3.58;2.72;;;7.00;99.90;;;;;;4969261;28;20136;-80
2024/01/22 01:51:54;;;;;;;3.65;2.22;;;7.10;99.90;;;;;;4986276;28;20100;-80
2024/01/22 01:54:19;;;;;;;2.08;1.88;;;7.10;99.90;;;;;;5004776;28;20042;-81
2024/01/22 01:56:45;;;;;;;8.82;2.17;;;7.20;99.90;;;;;;4971194;28;20554;-80
2024/01/22 01:59:11;;;;;;;4.63;1.98;;;7.20;99.90;;;;;;4985628;28;20061;-79
2024/01/22 02:01:36;;;;;;;4.80;1.77;;;7.20;99.90;;;;;;4969249;28;20237;-81
2024/01/22 02:04:02;;;;;;;4.20;2.33;;;7.30;99.90;;;;;;4984927;28;20050;-81
2024/01/22 02:06:27;;;;;;;1.52;1.42;;;7.30;99.90;;;;;;4986594;28;20057;-80
2024/01/22 02:08:53;;;;;;;5.55;2.40;;;7.30;99.90;;;;;;4981933;28;20046;-81
2024/01/22 02:11:22;;;;;;;3.40;2.00;;;7.30;99.90;;;;;;4986631;28;20038;-80
2024/01/22 02:13:48;;;;;;;3.28;1.90;;;7.40;99.90;;;;;;5004572;28;20064;-80
2024/01/22 02:16:14;;;;;;;3.22;1.73;;;7.40;99.90;;;;;;4986018;28;20507;-81
2024/01/22 02:18:40;;;;;;;3.05;2.15;;;7.40;99.90;;;;;;5002767;28;20037;-80
2024/01/22 02:21:05;;;;;;;3.58;2.15;;;7.50;99.90;;;;;;4994314;28;20413;-81
2024/01/22 02:23:31;;;;;;;2.33;1.77;;;7.50;99.90;;;;;;4986162;28;20041;-81
2024/01/22 02:25:56;;;;;;;5.47;1.60;;;7.50;99.90;;;;;;4985447;28;20500;-80
2024/01/22 02:28:22;;;;;;;6.25;2.33;;;7.50;99.90;;;;;;5002545;28;20108;-81
2024/01/22 02:30:47;;;;;;;5.68;1.80;;;7.50;99.90;;;;;;4982505;28;20045;-81
2024/01/22 02:33:13;;;;;;;7.68;2.25;;;7.50;99.90;;;;;;4989489;28;20451;-80
2024/01/22 02:35:39;;;;;;;1.70;1.55;;;7.60;99.90;;;;;;4983515;28;20542;-80
2024/01/22 02:38:05;;;;;;;2.08;1.55;;;7.50;99.90;;;;;;4988379;28;20053;-80
2024/01/22 02:40:30;;;;;;;3.67;1.73;;;7.60;99.90;;;;;;4983860;28;20121;-81
2024/01/22 02:42:56;;;;;;;2.83;1.40;;;7.60;99.90;;;;;;4981247;28;20104;-81
2024/01/22 02:45:21;;;;;;;2.88;1.65;;;7.60;99.90;;;;;;4985145;28;20243;-81
2024/01/22 02:47:47;;;;;;;2.50;1.55;;;7.70;99.90;;;;;;4985462;28;20444;-81
2024/01/22 02:50:12;;;;;;;2.13;1.08;;;7.70;99.90;;;;;;4984102;28;20053;-81
2024/01/22 02:52:38;;;;;;;3.08;1.45;;;7.70;99.90;;;;;;5003195;28;20042;-80
2024/01/22 02:55:04;;;;;;;2.60;1.30;;;7.70;99.90;;;;;;5000016;28;20100;-81
2024/01/22 02:57:29;;;;;;;1.40;0.85;;;7.70;99.90;;;;;;4983469;28;20398;-80
2024/01/22 02:59:55;;;;;;;2.60;1.90;;;7.70;99.90;;;;;;4987727;28;20432;-81
2024/01/22 03:02:21;;;;;;;2.40;1.70;;;7.70;99.90;;;;;;4985444;28;20049;-80
2024/01/22 03:04:46;;;;;;;1.67;1.45;;;7.70;99.90;;;;;;4967127;28;20062;-81
2024/01/22 03:07:12;;;;;;;5.45;1.98;;;7.70;99.90;;;;;;4983917;28;20401;-81
2024/01/22 03:09:38;;;;;;;1.75;1.52;;;7.70;99.90;;;;;;4965540;28;20041;-81
2024/01/22 03:12:05;;;;;;;2.85;2.13;;;7.70;99.90;;;;;;4981305;28;20511;-81
2024/01/22 03:14:31;;;;;;;1.85;1.48;;;7.80;99.90;;;;;;4981192;28;20136;-81
2024/01/22 03:16:57;;;;;;;4.75;1.05;;;7.70;99.90;;;;;;4984028;28;20141;-81
2024/01/22 03:19:22;;;;;;;8.75;1.88;;;7.70;99.90;;;;;;4968108;28;20046;-81
2024/01/22 03:21:48;;;;;;;3.40;1.65;;;7.80;99.90;;;;;;4981586;28;20056;-81
2024/01/22 03:24:13;;;;;;;2.42;1.75;;;7.80;99.90;;;;;;4989262;28;20472;-81
2024/01/22 03:26:39;;;;;;;1.98;1.42;;;7.80;99.90;;;;;;4983015;28;20049;-80
2024/01/22 03:29:04;;;;;;;3.58;2.10;;;7.80;99.90;;;;;;4990421;28;20045;-80
2024/01/22 03:31:30;;;;;;;0.90;0.90;;;7.90;99.90;;;;;;5002303;28;20235;-80
2024/01/22 03:33:56;;;;;;;1.25;1.15;;;7.90;99.90;;;;;;4982801;28;20519;-80
2024/01/22 03:36:23;;;;;;;2.00;1.23;;;7.90;99.90;;;;;;5000362;28;20393;-81
2024/01/22 03:38:49;;;;;;;1.20;1.10;;;7.90;99.90;;;;;;5000789;28;20037;-81
2024/01/22 03:41:15;;;;;;;1.55;1.25;;;7.90;99.90;;;;;;4983416;28;20096;-80
2024/01/22 03:43:44;;;;;;;1.58;1.05;;;7.90;99.90;;;;;;4979140;28;20077;-81
2024/01/22 03:46:11;;;;;;;4.05;1.98;;;7.90;99.90;;;;;;4982791;28;20046;-81
2024/01/22 03:48:37;;;;;;;4.95;2.67;;;7.90;99.90;;;;;;5001180;28;20038;-81
2024/01/22 03:51:04;;;;;;;2.30;1.42;;;7.90;99.90;;;;;;4995480;28;20116;-81
2024/01/22 03:53:29;;;;;;;1.00;0.90;;;8.00;99.90;;;;;;4981464;28;20046;-81
2024/01/22 03:55:55;;;;;;;1.33;1.02;;;7.90;99.90;;;;;;4993300;28;20101;-81
2024/01/22 03:58:20;;;;;;;1.20;0.70;;;8.10;99.90;;;;;;4982937;28;20042;-80
2024/01/22 04:00:46;;;;;;;2.45;0.75;;;8.10;99.90;;;;;;4986096;28;20508;-80
2024/01/22 04:03:12;;;;;;;3.25;1.25;;;8.10;99.90;;;;;;4964568;28;20434;-80
2024/01/22 04:05:37;;;;;;;1.40;1.30;;;8.20;99.90;;;;;;4979627;28;20063;-81
2024/01/22 04:08:04;;;;;;;1.65;1.00;;;8.30;99.90;;;;;;4983180;28;20045;-80
2024/01/22 04:10:29;;;;;;;1.77;1.20;;;8.30;99.90;;;;;;4967792;28;20037;-81
2024/01/22 04:12:55;;;;;;;2.25;0.93;;;8.40;99.90;;;;;;4983300;28;20104;-80
2024/01/22 04:15:21;;;;;;;2.88;1.80;;;8.40;99.90;;;;;;5001024;28;20049;-80
2024/01/22 04:17:47;;;;;;;2.10;1.60;;;8.50;99.90;;;;;;4982398;28;20522;-80
2024/01/22 04:20:13;;;;;;;0.80;0.80;;;8.40;99.90;;;;;;4982618;28;20077;-80
2024/01/22 04:22:38;;;;;;;3.08;1.35;;;8.50;99.90;;;;;;4980205;28;20030;-81
2024/01/22 04:25:04;;;;;;;2.35;1.33;;;8.50;99.90;;;;;;4983321;28;20598;-81
2024/01/22 04:27:30;;;;;;;1.00;0.90;;;8.60;99.90;;;;;;4980373;28;20303;-81
2024/01/22 04:29:56;;;;;;;1.33;1.23;;;8.60;99.90;;;;;;4997419;28;20081;-81
2024/01/22 04:32:22;;;;;;;3.22;1.63;;;8.70;99.90;;;;;;4997806;28;20042;-81
2024/01/22 04:34:48;;;;;;;1.40;1.30;;;8.70;99.90;;;;;;4979655;28;20119;-81
2024/01/22 04:37:14;;;;;;;1.10;0.90;;;8.70;99.90;;;;;;4981099;28;20061;-80
2024/01/22 04:39:40;;;;;;;2.40;1.02;;;8.70;99.90;;;;;;4980311;28;20050;-81
2024/01/22 04:42:06;;;;;;;1.95;1.23;;;8.70;99.90;;;;;;4980988;28;20092;-81
2024/01/22 04:44:32;;;;;;;0.80;0.70;;;8.80;99.90;;;;;;4984329;28;20648;-80
2024/01/22 04:46:58;;;;;;;1.63;0.82;;;8.80;99.90;;;;;;4982805;28;20041;-80
2024/01/22 04:49:24;;;;;;;1.40;1.00;;;8.80;99.90;;;;;;4979423;28;20410;-80
2024/01/22 04:51:50;;;;;;;1.38;0.75;;;8.80;99.90;;;;;;4966584;28;20124;-80
2024/01/22 04:54:16;;;;;;;1.17;0.90;;;8.80;99.90;;;;;;4980509;28;20319;-81
2024/01/22 04:56:44;;;;;;;0.98;0.82;;;8.80;99.90;;;;;;4995750;28;20042;-81
2024/01/22 04:59:09;;;;;;;2.08;1.13;;;8.80;99.90;;;;;;4981614;28;20085;-81
2024/01/22 05:01:35;;;;;;;1.05;0.95;;;8.80;99.90;;;;;;4966586;28;20084;-81
2024/01/22 05:04:01;;;;;;;0.73;0.73;;;8.80;99.90;;;;;;4982109;28;20054;-81
2024/01/22 05:06:27;;;;;;;3.38;0.77;;;8.80;99.90;;;;;;4982582;28;20057;-80
2024/01/22 05:08:52;;;;;;;0.85;0.60;;;8.80;99.90;;;;;;5000714;28;20061;-81
2024/01/22 05:11:18;;;;;;;0.70;0.70;;;8.80;99.90;;;;;;4999917;28;20125;-80
2024/01/22 05:13:52;;;;;;;2.28;1.50;;;8.80;99.90;;;;;;4980909;28;20034;-80
2024/01/22 05:16:18;;;;;;;0.95;0.68;;;8.80;99.90;;;;;;4981764;28;20050;-80
2024/01/22 05:18:45;;;;;;;2.22;0.95;;;8.80;99.90;;;;;;4946638;28;20093;-80
2024/01/22 05:21:11;;;;;;;0.63;0.60;;;8.80;99.90;;;;;;4963421;28;20061;-80
2024/01/22 05:23:37;;;;;;;0.70;0.70;;;8.90;99.90;;;;;;4964205;28;20540;-80
2024/01/22 05:26:03;;;;;;;2.28;0.93;;;8.90;99.90;;;;;;4980848;28;20418;-80
2024/01/22 05:28:28;;;;;;;2.92;0.70;;;8.90;99.90;;;;;;4998007;28;20133;-80
2024/01/22 05:30:54;;;;;;;1.95;0.80;;;9.00;99.90;;;;;;4979713;28;20367;-80
2024/01/22 05:33:19;;;;;;;2.30;1.00;;;9.00;99.90;;;;;;4978538;28;20681;-81
2024/01/22 05:35:45;;;;;;;2.50;1.15;;;9.00;99.90;;;;;;4993764;28;20378;-80
2024/01/22 05:38:11;;;;;;;1.35;1.00;;;9.00;99.90;;;;;;4981125;28;20112;-80
2024/01/22 05:40:36;;;;;;;1.00;0.70;;;9.00;99.90;;;;;;4983801;28;20537;-81
2024/01/22 05:43:02;;;;;;;1.00;0.73;;;9.10;99.90;;;;;;4993223;28;20139;-80
2024/01/22 05:45:27;;;;;;;4.90;1.13;;;9.10;99.90;;;;;;4979884;28;20046;-81
2024/01/22 05:47:53;;;;;;;1.13;0.75;;;9.20;99.90;;;;;;4993953;28;20041;-81
2024/01/22 05:50:18;;;;;;;3.47;0.93;;;9.30;99.90;;;;;;4966144;28;20050;-81
2024/01/22 05:52:44;;;;;;;3.33;1.10;;;9.40;99.90;;;;;;4966310;28;20424;-81
2024/01/22 05:55:10;;;;;;;2.28;1.48;;;9.40;99.90;;;;;;4964586;28;20045;-80
2024/01/22 05:57:35;;;;;;;6.25;2.28;;;9.40;99.90;;;;;;4985501;28;20034;-81
2024/01/22 06:00:09;;;;;;;2.38;1.02;;;9.40;99.90;;;;;;4995820;28;20034;-81
2024/01/22 06:02:37;;;;;;;5.47;1.58;;;9.50;99.90;;;;;;4979310;28;20167;-81
2024/01/22 06:05:03;;;;;;;5.07;1.35;;;9.50;99.90;;;;;;4964197;28;20050;-81
2024/01/22 06:07:29;;;;;;;4.03;1.77;;;9.50;99.90;;;;;;4969696;28;20056;-80
2024/01/22 06:09:54;;;;;;;4.65;1.30;;;9.50;99.90;;;;;;4969820;28;20396;-81
2024/01/22 06:12:20;;;;;;;1.80;1.10;;;9.50;99.90;;;;;;4987496;28;20142;-81
2024/01/22 06:14:46;;;;;;;7.03;2.70;;;9.50;99.90;;;;;;4986381;28;20034;-81
2024/01/22 06:17:11;;;;;;;5.05;0.95;;;9.50;99.90;;;;;;4985302;28;20459;-81
2024/01/22 06:19:37;;;;;;;2.05;1.10;;;9.50;99.90;;;;;;5002549;28;20068;-80
2024/01/22 06:22:03;;;;;;;6.30;2.10;;;9.50;99.90;;;;;;4992040;28;20039;-81
2024/01/22 06:24:29;;;;;;;8.23;1.70;;;9.50;99.90;;;;;;4986217;28;20140;-81
2024/01/22 06:26:55;;;;;;;9.43;1.95;;;9.50;99.90;;;;;;4981878;28;20477;-80
2024/01/22 06:29:20;;;;;;;6.50;1.52;;;9.50;99.90;;;;;;4990056;28;20357;-81
2024/01/22 06:31:46;;;;;;;4.22;2.15;;;9.50;99.90;;;;;;4995114;28;20104;-80
2024/01/22 06:34:11;;;;;;;11.05;2.75;;;9.50;99.90;;;;;;4983534;28;20042;-81
2024/01/22 06:36:37;;;;;;;3.65;1.50;;;9.50;99.90;;;;;;4990609;28;20120;-81
2024/01/22 06:39:03;;;;;;;7.25;1.88;;;9.50;99.90;;;;;;4994112;28;20125;-81
2024/01/22 06:41:29;;;;;;;7.55;2.25;;;9.50;99.90;;;;;;4991159;28;20651;-81
2024/01/22 06:43:54;;;;;;;7.95;1.95;;;9.60;99.90;;;;;;4985187;28;20091;-81
2024/01/22 06:46:21;;;;;;;17.40;2.75;;;9.60;99.90;;;;;;4995637;28;20104;-81
2024/01/22 06:48:47;;;;;;;7.45;2.47;;;9.60;99.90;;;;;;4991551;28;20073;-80
2024/01/22 06:51:12;;;;;;;7.22;1.60;;;9.60;99.90;;;;;;4972842;28;20050;-81
2024/01/22 06:53:38;;;;;;;5.18;1.88;;;9.60;99.90;;;;;;4977279;28;20046;-80
2024/01/22 06:56:05;;;;;;;9.98;2.90;;;9.60;99.90;;;;;;5003481;28;20092;-81
2024/01/22 06:58:30;;;;;;;10.23;2.90;;;9.60;99.90;;;;;;5004143;28;20038;-81
2024/01/22 07:00:56;;;;;;;9.18;3.15;;;9.60;99.90;;;;;;4991968;28;20130;-81
2024/01/22 07:03:22;;;;;;;9.32;3.35;;;9.50;99.90;;;;;;4963091;28;20421;-81
2024/01/22 07:05:48;;;;;;;10.82;4.43;;;9.50;99.90;;;;;;4983268;28;20094;-81
2024/01/22 07:08:13;;;;;;;9.30;2.55;;;9.50;99.90;;;;;;4982512;28;20152;-82
2024/01/22 07:10:40;;;;;;;10.32;3.17;;;9.50;99.90;;;;;;4981842;28;20701;-81
2024/01/22 07:13:06;;;;;;;5.32;2.22;;;9.50;99.90;;;;;;4997108;28;20116;-81
2024/01/22 07:15:31;;;;;;;7.50;3.85;;;9.50;99.90;;;;;;4979097;28;20165;-82
2024/01/22 07:17:57;;;;;;;10.23;2.70;;;9.50;99.90;;;;;;4965814;28;20053;-83
2024/01/22 07:20:23;;;;;;;9.02;2.55;;;9.50;99.90;;;;;;4980290;28;20042;-82
2024/01/22 07:22:49;;;;;;;12.63;3.33;;;9.50;99.90;;;;;;4967718;28;20050;-83
2024/01/22 07:25:16;;;;;;;12.43;4.55;;;9.40;99.90;;;;;;4996933;28;20038;-82
2024/01/22 07:27:42;;;;;;;11.93;3.97;;;9.50;99.90;;;;;;4972327;28;20045;-83
2024/01/22 07:30:11;;;;;;;11.93;3.28;;;9.40;99.90;;;;;;4993597;28;20052;-88
2024/01/22 07:32:38;;;;;;;4.53;2.35;;;9.40;99.90;;;;;;4986103;28;20493;-85
2024/01/22 07:35:09;;;;;;;10.45;2.38;;;9.40;99.90;;;;;;4998349;28;20523;-85
2024/01/22 07:37:36;;;;;;;6.72;1.80;;;9.40;99.90;;;;;;4997539;28;20038;-85
2024/01/22 07:40:04;;;;;;;8.55;2.42;;;9.40;99.90;;;;;;4981605;28;20185;-85
2024/01/22 07:42:33;;;;;;;8.55;2.28;;;9.30;99.90;;;;;;4965212;28;20099;-85
2024/01/22 07:45:01;;;;;;;8.13;2.22;;;9.30;99.90;;;;;;4977792;28;20054;-85
2024/01/22 07:47:29;;;;;;;10.27;2.47;;;9.30;99.90;;;;;;4988879;28;20117;-84
2024/01/22 07:49:55;;;;;;;8.38;2.10;;;9.30;99.90;;;;;;4965852;28;20048;-84
2024/01/22 07:52:22;;;;;;;4.78;2.03;;;9.20;99.90;;;;;;4970715;28;20050;-84
2024/01/22 07:54:48;;;;;;;7.35;3.28;;;9.20;99.90;;;;;;5002344;28;20049;-83
2024/01/22 07:57:14;;;;;;;11.95;2.60;;;9.20;99.90;;;;;;4964958;28;20069;-84
2024/01/22 07:59:40;;;;;;;4.65;2.08;;;9.20;99.90;;;;;;4967596;28;20057;-83
2024/01/22 08:02:06;;;;;;;4.88;1.90;;;9.20;99.90;;;;;;4984212;28;20439;-83
2024/01/22 08:04:32;;;;;;;9.80;2.92;;;9.10;99.90;;;;;;4983076;28;20066;-83
2024/01/22 08:07:03;;;;;;;6.93;2.28;;;9.10;99.90;;;;;;5000444;28;20121;-82
2024/01/22 08:09:34;;;;;;;4.82;1.95;;;9.00;99.90;;;;;;5000345;28;20042;-82
2024/01/22 08:12:00;;;;;;;7.60;2.63;;;9.00;99.90;;;;;;4973677;28;20046;-83
2024/01/22 08:14:25;;;;;;;10.02;2.97;;;9.00;99.90;;;;;;4965559;28;20042;-83
2024/01/22 08:16:51;;;;;;;7.60;1.92;;;8.90;99.90;;;;;;4998192;28;20038;-84
2024/01/22 08:19:17;;;;;;;8.68;2.08;;;8.90;99.90;;;;;;4967275;28;20053;-85
2024/01/22 08:21:43;;;;;;;6.20;1.67;;;8.90;99.90;;;;;;4994195;28;20041;-83
2024/01/22 08:24:08;;;;;;;10.18;2.72;;;8.80;99.90;;;;;;4983740;28;20052;-83
2024/01/22 08:26:34;;;;;;;5.63;1.90;;;8.80;99.90;;;;;;5001834;28;20046;-84
2024/01/22 08:29:00;;;;;;;11.13;3.42;;;8.80;99.90;;;;;;4980301;28;20045;-82
2024/01/22 08:31:25;;;;;;;10.85;4.20;;;8.80;99.90;;;;;;4998560;28;20042;-84
2024/01/22 08:33:51;;;;;;;6.63;3.08;;;8.70;99.90;;;;;;4999129;28;20542;-81
2024/01/22 08:36:16;;;;;;;10.23;3.53;;;8.70;99.90;;;;;;4977405;28;20045;-77
2024/01/22 08:38:42;;;;;;;8.18;3.03;;;8.70;99.90;;;;;;4992920;28;20085;-79
2024/01/22 08:41:10;;;;;;;18.58;4.70;;;8.70;99.90;;;;;;4986949;28;20034;-76
2024/01/22 08:43:36;;;;;;;21.15;3.75;;;8.70;99.90;;;;;;4992698;28;20705;-76
2024/01/22 08:46:02;;;;;;;14.88;4.38;;;8.70;99.90;;;;;;4995940;28;20070;-75
2024/01/22 08:48:28;;;;;;;29.58;4.53;;;8.70;99.90;;;;;;4990329;28;20404;-75
2024/01/22 08:50:53;;;;;;;19.23;6.10;;;8.60;99.90;;;;;;4971271;28;20054;-77
2024/01/22 08:53:19;;;;;;;15.48;4.53;;;8.60;99.90;;;;;;4987008;28;20489;-77
2024/01/22 08:55:44;;;;;;;29.15;6.22;;;8.60;99.90;;;;;;4987468;28;20045;-76
2024/01/22 08:58:10;;;;;;;6.50;3.55;;;8.60;99.90;;;;;;4990426;28;20555;-77
2024/01/22 09:00:36;;;;;;;13.52;4.45;;;8.60;99.90;;;;;;4996868;28;20089;-76
2024/01/22 09:03:02;;;;;;;19.00;5.47;;;8.60;99.90;;;;;;4993227;28;20046;-77
2024/01/22 09:05:28;;;;;;;21.13;4.47;;;8.60;99.90;;;;;;4997190;28;20065;-77
2024/01/22 09:07:54;;;;;;;22.73;4.55;;;8.70;99.90;;;;;;4999172;28;20556;-77
2024/01/22 09:10:21;;;;;;;19.02;5.47;;;8.70;99.90;;;;;;4952447;28;20049;-77
2024/01/22 09:12:48;;;;;;;19.52;5.38;;;8.70;99.90;;;;;;4965153;28;20035;-76
2024/01/22 09:15:17;;;;;;;15.32;4.15;;;8.70;99.90;;;;;;4990520;28;20038;-77
2024/01/22 09:17:44;;;;;;;14.45;4.65;;;8.70;99.90;;;;;;4993235;28;20122;-78
2024/01/22 09:20:10;;;;;;;9.43;3.42;;;8.70;99.90;;;;;;4995760;28;20180;-78
2024/01/22 09:22:36;;;;;;;14.65;4.20;;;8.70;99.90;;;;;;4975758;28;20040;-78
2024/01/22 09:25:03;;;;;;;7.82;3.08;;;8.70;99.90;;;;;;4994149;28;20058;-78
2024/01/22 09:27:28;;;;;;;16.00;3.90;;;8.70;99.90;;;;;;4982076;28;20109;-78
2024/01/22 09:29:55;;;;;;;25.67;4.80;;;8.70;99.90;;;;;;4972020;28;20212;-79
2024/01/22 09:32:21;;;;;;;16.20;5.10;;;8.70;99.90;;;;;;4986758;28;20227;-79
2024/01/22 09:34:47;;;;;;;13.00;3.97;;;8.70;99.90;;;;;;4979700;28;20069;-77
2024/01/22 09:37:13;;;;;;;10.52;3.42;;;8.70;99.90;;;;;;4987983;28;20046;-77
2024/01/22 09:39:38;;;;;;;6.53;3.63;;;8.70;99.90;;;;;;4989868;28;20095;-78
2024/01/22 09:42:05;;;;;;;15.95;3.50;;;8.70;99.90;;;;;;4973591;28;20200;-78
2024/01/22 09:44:32;;;;;;;15.35;4.38;;;8.70;99.90;;;;;;4998521;28;20113;-79
2024/01/22 09:46:58;;;;;;;16.35;5.85;;;8.70;99.90;;;;;;4994537;28;20043;-79
2024/01/22 09:49:24;;;;;;;13.60;5.20;;;8.70;99.90;;;;;;4989482;28;20066;-79
2024/01/22 09:51:50;;;;;;;5.38;2.08;;;8.70;99.90;;;;;;4992908;28;20438;-79
2024/01/22 09:54:18;;;;;;;8.82;3.70;;;8.70;99.90;;;;;;5001781;28;20083;-79
2024/01/22 09:56:52;;;;;;;13.65;4.22;;;8.70;99.90;;;;;;4970302;28;20058;-79
2024/01/22 09:59:24;;;;;;;15.38;2.75;;;8.70;99.90;;;;;;4979379;28;20038;-79
2024/01/22 10:01:51;;;;;;;10.00;2.60;;;8.70;99.90;;;;;;4984328;28;20508;-79
2024/01/22 10:04:18;;;;;;;9.95;3.50;;;8.70;99.90;;;;;;4966525;28;20328;-79
2024/01/22 10:06:45;;;;;;;9.90;2.58;;;8.70;99.90;;;;;;4993928;28;20042;-80
2024/01/22 10:09:15;;;;;;;15.75;3.85;;;8.60;99.90;;;;;;4979963;28;20062;-78
2024/01/22 10:11:41;;;;;;;9.65;2.78;;;8.60;99.90;;;;;;4970474;28;20386;-79
2024/01/22 10:14:07;;;;;;;7.22;2.92;;;8.60;99.90;;;;;;4996362;28;20057;-79
2024/01/22 10:16:32;;;;;;;12.02;2.53;;;8.60;99.90;;;;;;4995558;28;20034;-79
2024/01/22 10:19:00;;;;;;;5.75;2.05;;;8.60;99.90;;;;;;4961431;28;20042;-78
2024/01/22 10:21:26;;;;;;;7.28;3.15;;;8.60;99.90;;;;;;5000357;28;20040;-79
2024/01/22 10:24:06;;;;;;;12.88;2.13;;;8.60;99.90;;;;;;5003293;28;20053;-79
2024/01/22 10:26:33;;;;;;;15.63;3.33;;;8.60;99.90;;;;;;4995376;28;20436;-79
2024/01/22 10:29:22;;;;;;;6.13;2.83;;;8.60;99.90;;;;;;4986247;28;20038;-78
2024/01/22 10:31:57;;;;;;;13.73;2.83;;;8.60;99.90;;;;;;4995679;28;20047;-79
2024/01/22 10:34:40;;;;;;;12.50;3.22;;;8.60;99.90;;;;;;4979761;28;20678;-79
2024/01/22 10:37:08;;;;;;;5.25;2.10;;;8.60;99.90;;;;;;4977009;28;20041;-79
2024/01/22 10:39:34;;;;;;;13.43;3.85;;;8.60;99.90;;;;;;4975081;28;20219;-79
2024/01/22 10:42:13;;;;;;;5.70;2.10;;;8.70;99.90;;;;;;4986078;28;20042;-79
2024/01/22 10:44:41;;;;;;;8.20;2.67;;;8.70;99.90;;;;;;4967567;28;20069;-79
2024/01/22 10:47:09;;;;;;;11.20;2.70;;;8.70;99.90;;;;;;4973022;28;20046;-79
2024/01/22 10:49:35;;;;;;;10.73;2.30;;;8.70;99.90;;;;;;4972489;28;20297;-79
2024/01/22 10:52:02;;;;;;;8.02;2.17;;;8.70;99.90;;;;;;4999455;28;20489;-79
2024/01/22 10:54:28;;;;;;;7.70;1.30;;;8.70;99.90;;;;;;4979827;28;20042;-80
2024/01/22 10:57:01;;;;;;;6.60;2.80;;;8.80;99.90;;;;;;4972463;28;20060;-76
2024/01/22 10:59:29;;;;;;;6.70;2.17;;;8.70;99.90;;;;;;4971672;28;20076;-75
2024/01/22 11:01:56;;;;;;;11.10;1.52;;;8.80;99.90;;;;;;4991261;28;20038;-78
2024/01/22 11:04:29;;;;;;;6.60;2.05;;;8.80;99.90;;;;;;4997949;28;20049;-77
2024/01/22 11:06:59;;;;;;;;;;;8.80;99.90;;;;;;4998937;28;20089;-75
2024/01/22 11:09:32;;;;;;;12.68;3.15;;;8.70;99.90;;;;;;4967559;28;20352;-77
2024/01/22 11:12:06;;;;;;;9.18;3.70;;;8.80;99.90;;;;;;4995169;28;20536;-79
2024/01/22 11:14:34;;;;;;;8.15;3.47;;;8.70;99.90;;;;;;4983714;28;20335;-75
2024/01/22 11:17:01;;;;;;;7.22;2.67;;;8.80;99.90;;;;;;4966139;28;20039;-78
2024/01/22 11:19:26;;;;;;;7.82;3.60;;;8.80;99.90;;;;;;4965996;28;20309;-76
2024/01/22 11:21:53;;;;;;;14.90;3.38;;;8.80;99.90;;;;;;4978411;28;20054;-77
2024/01/22 11:24:21;;;;;;;7.88;1.70;;;8.70;99.90;;;;;;4981423;28;20390;-76
2024/01/22 11:26:51;;;;;;;10.60;1.95;;;8.70;99.90;;;;;;4984789;28;20065;-77
2024/01/22 11:29:25;;;;;;;7.25;3.10;;;8.70;99.90;;;;;;4974738;28;20142;-77
2024/01/22 11:31:50;;;;;;;9.20;1.73;;;8.70;99.90;;;;;;4981867;28;20056;-78
2024/01/22 11:34:38;;;;;;;9.02;2.10;;;8.80;99.90;;;;;;4968656;28;20132;-77
2024/01/22 11:37:04;;;;;;;7.30;2.42;;;8.70;99.90;;;;;;4979740;28;20033;-79
2024/01/22 11:39:35;;;;;;;1.98;1.50;;;8.70;99.90;;;;;;4989154;28;20045;-79
2024/01/22 11:42:16;;;;;;;6.97;2.70;;;8.70;99.90;;;;;;4976429;28;20543;-76
2024/01/22 11:44:51;;;;;;;5.30;1.95;;;8.70;99.90;;;;;;4972949;28;20042;-79
2024/01/22 11:47:18;;;;;;;6.45;2.97;;;8.70;99.90;;;;;;4963677;28;20103;-78
2024/01/22 11:49:44;;;;;;;3.70;1.95;;;8.70;99.90;;;;;;4997881;28;20574;-79
2024/01/22 11:52:13;;;;;;;3.95;1.63;;;8.70;99.90;;;;;;4967227;28;20045;-77
2024/01/22 11:55:00;;;;;;;7.50;2.58;;;8.70;99.90;;;;;;4984463;28;20042;-79
2024/01/22 11:57:29;;;;;;;7.18;2.47;;;8.70;99.90;;;;;;4967858;28;20056;-76
2024/01/22 12:00:08;;;;;;;5.03;1.92;;;8.70;99.90;;;;;;4993724;28;20265;-78
2024/01/22 12:02:35;;;;;;;6.45;2.22;;;8.70;99.90;;;;;;4977794;28;20050;-76
2024/01/22 12:05:03;;;;;;;18.05;2.70;;;8.70;99.90;;;;;;4980845;28;20062;-76
2024/01/22 12:07:32;;;;;;;8.93;1.98;;;8.70;99.90;;;;;;4977619;28;20072;-76
2024/01/22 12:09:59;;;;;;;8.77;2.45;;;8.70;99.90;;;;;;5003114;28;20056;-75
2024/01/22 12:12:24;;;;;;;10.90;3.00;;;8.60;99.90;;;;;;4964007;28;20176;-74
2024/01/22 12:14:57;;;;;;;10.70;1.98;;;8.60;99.90;;;;;;4979788;28;20132;-75
2024/01/22 12:17:24;;;;;;;17.40;2.67;;;8.60;99.90;;;;;;4978491;28;20038;-76
2024/01/22 12:19:54;;;;;;;3.90;2.67;;;8.60;99.90;;;;;;4977121;28;20736;-75
2024/01/22 12:22:22;;;;;;;9.95;3.05;;;8.60;99.90;;;;;;4959742;28;20042;-77
2024/01/22 12:25:09;;;;;;;5.00;2.47;;;8.60;99.90;;;;;;4968408;28;20049;-80
2024/01/22 12:27:36;;;;;;;4.57;3.35;;;8.60;99.90;;;;;;4956014;28;20113;-77
2024/01/22 12:30:12;;;;;;;4.75;1.60;;;8.70;99.90;;;;;;4982874;28;20105;-77
2024/01/22 12:32:38;;;;;;;6.32;1.80;;;8.60;99.90;;;;;;4971413;28;20069;-78
2024/01/22 12:35:05;;;;;;;5.20;1.92;;;8.60;99.90;;;;;;4970489;28;20453;-77
2024/01/22 12:37:34;;;;;;;5.70;1.95;;;8.60;99.90;;;;;;4979746;28;20153;-76
2024/01/22 12:40:17;;;;;;;9.40;2.25;;;8.60;99.90;;;;;;4988460;28;20038;-79
2024/01/22 12:42:43;;;;;;;9.77;3.25;;;8.60;99.90;;;;;;4981617;28;20096;-79
2024/01/22 12:45:11;;;;;;;7.82;2.15;;;8.60;99.90;;;;;;4971348;28;20042;-78
2024/01/22 12:47:37;;;;;;;13.90;2.88;;;8.60;99.90;;;;;;4973956;28;20044;-79
2024/01/22 12:50:04;;;;;;;10.15;2.53;;;8.60;99.90;;;;;;4980148;28;20608;-79
2024/01/22 12:52:30;;;;;;;8.50;2.97;;;8.60;99.90;;;;;;4982866;28;20050;-78
2024/01/22 12:54:55;;;;;;;11.45;3.03;;;8.60;99.90;;;;;;4989165;28;20034;-74